createdAt,value
2022-08-08T00:03:31.698Z,2.92
2022-08-08T00:07:37.927Z,3.05
2022-08-08T00:11:23.551Z,3.25
2022-08-08T00:15:24.350Z,3.45
2022-08-08T00:19:27.181Z,2.67
2022-08-08T00:23:28.550Z,2.63
2022-08-08T00:27:32.948Z,3.28
2022-08-08T00:32:19.884Z,2.92
2022-08-08T00:35:34.314Z,3.00
2022-08-08T00:41:06.863Z,2.80
2022-08-08T00:44:06.252Z,3.13
2022-08-08T00:48:01.524Z,2.75
2022-08-08T00:52:02.204Z,2.83
2022-08-08T00:56:19.073Z,2.13
2022-08-08T01:00:06.736Z,2.85
2022-08-08T01:04:13.953Z,2.28
2022-08-08T01:08:30.203Z,1.95
2022-08-08T01:12:44.454Z,2.10
2022-08-08T01:24:26.054Z,1.60
2022-08-08T01:28:27.792Z,2.70
2022-08-08T01:32:17.343Z,2.60
2022-08-08T01:36:11.256Z,2.80
2022-08-08T01:40:00.319Z,2.47
2022-08-08T01:44:09.582Z,2.00
2022-08-08T01:48:27.633Z,1.55
2022-08-08T01:54:01.379Z,1.70
2022-08-08T01:56:42.442Z,1.67
2022-08-08T02:00:36.454Z,1.83
2022-08-08T02:04:20.826Z,1.30
2022-08-08T02:08:08.763Z,1.40
2022-08-08T02:11:52.672Z,1.30
2022-08-08T02:16:00.687Z,1.67
2022-08-08T02:20:09.227Z,1.70
2022-08-08T02:24:14.778Z,1.20
2022-08-08T02:27:58.638Z,1.40
2022-08-08T02:32:00.887Z,1.40
2022-08-08T02:36:05.183Z,1.65
2022-08-08T02:40:13.762Z,1.65
2022-08-08T02:44:38.106Z,1.80
2022-08-08T02:48:26.213Z,1.58
2022-08-08T02:52:34.888Z,2.13
2022-08-08T02:56:39.334Z,1.90
2022-08-08T03:00:47.056Z,1.92
2022-08-08T03:05:04.993Z,2.00
2022-08-08T03:09:24.657Z,2.20
2022-08-08T03:13:34.104Z,2.30
2022-08-08T03:18:04.810Z,2.33
2022-08-08T03:21:58.355Z,1.85
2022-08-08T03:25:40.972Z,2.00
2022-08-08T03:29:54.821Z,2.10
2022-08-08T03:33:56.711Z,2.30
2022-08-08T03:38:52.640Z,2.40
2022-08-08T03:42:28.407Z,1.90
2022-08-08T03:46:05.064Z,2.60
2022-08-08T03:50:00.612Z,2.25
2022-08-08T03:53:47.237Z,2.50
2022-08-08T03:58:32.222Z,2.42
2022-08-08T04:02:12.448Z,2.30
2022-08-08T04:05:37.894Z,2.28
2022-08-08T04:09:59.068Z,2.00
2022-08-08T04:13:30.836Z,3.25
2022-08-08T04:17:58.133Z,1.95
2022-08-08T04:21:38.006Z,1.70
2022-08-08T04:25:23.346Z,1.90
2022-08-08T04:29:15.082Z,2.53
2022-08-08T04:32:58.169Z,2.22
2022-08-08T04:36:39.919Z,2.30
2022-08-08T04:40:23.869Z,2.22
2022-08-08T04:44:06.325Z,2.15
2022-08-08T04:47:48.052Z,1.92
2022-08-08T04:51:54.927Z,1.92
2022-08-08T04:55:47.613Z,2.00
2022-08-08T04:59:41.867Z,2.42
2022-08-08T05:04:11.241Z,2.20
2022-08-08T05:07:26.921Z,2.15
2022-08-08T05:15:08.622Z,2.05
2022-08-08T05:18:56.595Z,2.88
2022-08-08T05:22:39.206Z,2.40
2022-08-08T05:26:22.344Z,2.47
2022-08-08T05:30:12.454Z,2.10
2022-08-08T05:33:54.197Z,2.67
2022-08-08T05:37:52.676Z,2.30
2022-08-08T05:41:36.004Z,2.50
2022-08-08T05:45:41.428Z,2.15
2022-08-08T05:49:25.303Z,2.20
2022-08-08T05:53:53.918Z,2.25
2022-08-08T05:57:15.639Z,2.10
2022-08-08T06:00:58.733Z,2.10
2022-08-08T06:08:34.545Z,2.63
2022-08-08T06:12:18.580Z,2.47
2022-08-08T06:16:12.150Z,2.50
2022-08-08T06:19:53.904Z,2.43
2022-08-08T06:24:01.987Z,2.28
2022-08-08T06:27:51.244Z,2.42
2022-08-08T06:32:09.041Z,2.28
2022-08-08T06:36:07.350Z,2.45
2022-08-08T06:39:56.022Z,2.00
2022-08-08T06:43:39.546Z,2.58
2022-08-08T06:47:22.119Z,2.60
2022-08-08T06:51:08.382Z,2.30
2022-08-08T06:54:50.466Z,2.50
2022-08-08T06:58:33.410Z,2.33
2022-08-08T07:02:29.158Z,2.63
2022-08-08T07:06:11.559Z,2.78
2022-08-08T07:10:00.220Z,2.55
2022-08-08T07:14:00.853Z,1.98
2022-08-08T07:18:01.690Z,2.50
2022-08-08T07:22:11.863Z,2.42
2022-08-08T07:26:01.517Z,2.78
2022-08-08T07:30:00.975Z,2.30
2022-08-08T07:33:53.429Z,2.80
2022-08-08T07:37:56.270Z,2.53
2022-08-08T07:42:04.604Z,2.90
2022-08-08T07:46:05.631Z,2.63
2022-08-08T07:49:49.388Z,2.58
2022-08-08T07:54:24.157Z,2.70
2022-08-08T07:58:31.682Z,3.10
2022-08-08T08:02:35.104Z,3.13
2022-08-08T08:06:16.345Z,3.42
2022-08-08T08:09:58.573Z,4.60
2022-08-08T08:14:07.773Z,3.90
2022-08-08T08:17:55.818Z,4.15
2022-08-08T08:21:52.358Z,3.67
2022-08-08T08:25:43.787Z,3.65
2022-08-08T08:29:28.728Z,3.58
2022-08-08T08:33:11.001Z,4.07
2022-08-08T08:36:54.741Z,3.35
2022-08-08T08:40:36.960Z,3.17
2022-08-08T08:44:21.004Z,3.25
2022-08-08T08:48:06.410Z,3.42
2022-08-08T08:51:51.767Z,3.60
2022-08-08T08:59:58.927Z,3.15
2022-08-08T09:03:24.226Z,2.65
2022-08-08T09:07:39.438Z,2.78
2022-08-08T09:11:33.255Z,2.25
2022-08-08T09:15:15.285Z,2.60
2022-08-08T09:19:29.125Z,2.20
2022-08-08T09:23:25.647Z,2.35
2022-08-08T09:27:20.071Z,2.78
2022-08-08T09:31:12.896Z,2.33
2022-08-08T09:34:54.862Z,2.20
2022-08-08T09:39:10.036Z,2.00
2022-08-08T09:43:41.164Z,1.95
2022-08-08T09:48:04.582Z,1.80
2022-08-08T09:51:29.820Z,1.60
2022-08-08T09:55:31.137Z,1.40
2022-08-08T10:00:02.027Z,2.17
2022-08-08T10:03:31.496Z,1.45
2022-08-08T10:07:15.807Z,2.00
2022-08-08T10:11:01.310Z,2.10
2022-08-08T10:15:00.094Z,1.90
2022-08-08T10:18:42.954Z,1.77
2022-08-08T10:22:25.605Z,1.52
2022-08-08T10:26:12.298Z,1.70
2022-08-08T10:30:16.666Z,1.30
2022-08-08T10:34:19.464Z,1.58
2022-08-08T10:38:05.306Z,1.30
2022-08-08T10:42:14.913Z,1.30
2022-08-08T10:45:58.904Z,1.42
2022-08-08T10:50:01.284Z,1.33
2022-08-08T10:53:58.019Z,1.27
2022-08-08T10:57:50.454Z,1.48
2022-08-08T11:01:36.481Z,1.27
2022-08-08T11:05:18.452Z,0.95
2022-08-08T11:09:19.436Z,1.45
2022-08-08T11:13:28.605Z,1.33
2022-08-08T11:17:04.168Z,1.42
2022-08-08T11:20:52.384Z,1.35
2022-08-08T11:24:35.631Z,1.30
2022-08-08T11:28:20.298Z,1.33
2022-08-08T11:32:03.680Z,1.20
2022-08-08T11:35:45.460Z,1.23
2022-08-08T11:43:19.231Z,1.20
2022-08-08T11:47:03.573Z,0.93
2022-08-08T11:50:54.839Z,1.10
2022-08-08T11:54:45.030Z,1.25
2022-08-08T11:58:34.751Z,1.15
2022-08-08T12:02:35.893Z,1.45
2022-08-08T12:06:18.546Z,1.20
2022-08-08T12:10:11.092Z,1.10
2022-08-08T12:14:03.590Z,1.08
2022-08-08T12:17:51.066Z,1.23
2022-08-08T12:21:59.174Z,1.05
2022-08-08T12:25:44.744Z,1.10
2022-08-08T12:29:42.421Z,1.23
2022-08-08T12:33:37.486Z,1.07
2022-08-08T12:37:25.866Z,1.23
2022-08-08T12:41:35.363Z,0.93
2022-08-08T12:45:59.128Z,1.20
2022-08-08T12:49:43.764Z,1.33
2022-08-08T12:53:37.982Z,1.10
2022-08-08T12:57:26.103Z,1.30
2022-08-08T13:01:11.919Z,0.90
2022-08-08T13:04:54.801Z,1.20
2022-08-08T13:08:53.670Z,0.95
2022-08-08T13:12:47.008Z,1.15
2022-08-08T13:16:32.955Z,1.20
2022-08-08T13:20:17.416Z,0.98
2022-08-08T13:24:00.222Z,1.20
2022-08-08T13:27:42.906Z,0.82
2022-08-08T13:31:25.687Z,0.95
2022-08-08T13:35:24.184Z,1.10
2022-08-08T13:39:06.970Z,0.82
2022-08-08T13:42:50.694Z,0.77
2022-08-08T13:46:32.581Z,1.52
2022-08-08T13:50:39.780Z,1.05
2022-08-08T13:54:21.265Z,1.00
2022-08-08T13:58:07.847Z,1.20
2022-08-08T14:01:57.995Z,1.02
2022-08-08T14:06:00.429Z,0.80
2022-08-08T14:10:04.427Z,0.95
2022-08-08T14:13:59.901Z,0.95
2022-08-08T14:17:57.695Z,1.10
2022-08-08T14:21:49.016Z,0.90
2022-08-08T14:25:47.050Z,1.00
2022-08-08T14:29:39.458Z,0.80
2022-08-08T14:33:36.410Z,1.25
2022-08-08T14:37:18.806Z,1.02
2022-08-08T14:41:17.666Z,1.20
2022-08-08T14:45:18.287Z,0.68
2022-08-08T14:49:20.429Z,0.90
2022-08-08T14:53:15.163Z,0.70
2022-08-08T14:56:58.117Z,0.80
2022-08-08T15:00:40.097Z,0.65
2022-08-08T15:04:24.147Z,0.68
2022-08-08T15:08:12.579Z,0.77
2022-08-08T15:12:04.671Z,0.88
2022-08-08T15:16:02.837Z,0.82
2022-08-08T15:19:45.583Z,0.60
2022-08-08T15:23:33.334Z,0.75
2022-08-08T15:27:57.681Z,0.70
2022-08-08T15:31:55.983Z,0.80
2022-08-08T15:35:22.200Z,0.70
2022-08-08T15:39:04.427Z,0.70
2022-08-08T15:42:47.627Z,1.00
2022-08-08T15:46:34.750Z,0.68
2022-08-08T15:50:20.869Z,1.02
2022-08-08T15:54:04.221Z,0.70
2022-08-08T15:57:46.070Z,0.65
2022-08-08T16:01:41.030Z,0.70
2022-08-08T16:05:35.884Z,0.70
2022-08-08T16:13:14.926Z,0.70
2022-08-08T16:13:43.596Z,1.38
2022-08-08T16:17:58.012Z,0.80
2022-08-08T16:21:30.846Z,0.90
2022-08-08T16:25:13.647Z,0.80
2022-08-08T16:28:57.088Z,0.73
2022-08-08T16:32:38.874Z,0.90
2022-08-08T16:36:33.601Z,0.90
2022-08-08T16:40:19.577Z,0.77
2022-08-08T16:44:01.822Z,0.73
2022-08-08T16:47:46.525Z,1.10
2022-08-08T16:55:04.274Z,1.02
2022-08-08T16:55:53.803Z,0.75
2022-08-08T16:59:50.830Z,0.88
2022-08-08T17:03:59.078Z,0.82
2022-08-08T17:07:37.523Z,0.70
2022-08-08T17:11:19.887Z,0.70
2022-08-08T17:15:01.745Z,0.93
2022-08-08T17:19:00.651Z,0.70
2022-08-08T17:22:42.802Z,1.02
2022-08-08T17:26:26.689Z,0.73
2022-08-08T17:30:16.307Z,0.88
2022-08-08T17:34:53.906Z,0.90
2022-08-08T17:38:07.174Z,0.88
2022-08-08T17:41:49.625Z,1.00
2022-08-08T17:45:40.430Z,0.95
2022-08-08T17:49:24.901Z,0.90
2022-08-08T17:53:10.418Z,0.95
2022-08-08T17:56:52.562Z,0.80
2022-08-08T18:00:41.127Z,1.10
2022-08-08T18:04:28.751Z,1.02
2022-08-08T18:08:24.641Z,1.10
2022-08-08T18:12:14.694Z,1.30
2022-08-08T18:16:04.313Z,1.20
2022-08-08T18:19:46.493Z,1.35
2022-08-08T18:23:55.840Z,0.90
2022-08-08T18:27:38.335Z,0.90
2022-08-08T18:31:27.746Z,1.10
2022-08-08T18:35:15.521Z,0.90
2022-08-08T18:38:58.684Z,1.75
2022-08-08T18:42:50.016Z,1.45
2022-08-08T18:46:55.237Z,1.08
2022-08-08T18:50:33.822Z,1.10
2022-08-08T18:54:22.452Z,1.25
2022-08-08T18:58:06.445Z,1.10
2022-08-08T19:02:14.239Z,1.23
2022-08-08T19:05:51.750Z,1.50
2022-08-08T19:09:49.377Z,1.42
2022-08-08T19:13:53.338Z,1.50
2022-08-08T19:17:48.173Z,2.38
2022-08-08T19:21:48.950Z,1.63
2022-08-08T19:26:25.043Z,1.20
2022-08-08T19:29:35.699Z,1.80
2022-08-08T19:33:24.540Z,1.50
2022-08-08T19:37:06.443Z,1.40
2022-08-08T19:40:54.550Z,1.65
2022-08-08T19:44:45.784Z,1.27
2022-08-08T19:48:31.247Z,1.20
2022-08-08T19:52:13.642Z,1.48
2022-08-08T19:55:55.450Z,1.90
2022-08-08T19:59:41.992Z,1.48
2022-08-08T20:04:00.987Z,1.60
2022-08-08T20:08:29.032Z,1.60
2022-08-08T20:11:27.418Z,1.52
2022-08-08T20:15:16.824Z,1.63
2022-08-08T20:18:59.222Z,1.60
2022-08-08T20:22:43.316Z,1.52
2022-08-08T20:26:30.233Z,1.50
2022-08-08T20:30:53.931Z,1.50
2022-08-08T20:34:29.166Z,1.50
2022-08-08T20:38:12.736Z,1.23
2022-08-08T20:41:54.563Z,1.35
2022-08-08T20:45:58.101Z,1.30
2022-08-08T20:49:46.625Z,1.17
2022-08-08T20:53:58.990Z,1.45
2022-08-08T20:57:30.888Z,1.60
2022-08-08T21:01:20.186Z,1.20
2022-08-08T21:05:02.202Z,1.25
2022-08-08T21:08:49.254Z,1.15
2022-08-08T21:12:36.561Z,1.55
2022-08-08T21:16:28.685Z,1.38
2022-08-08T21:20:11.604Z,1.50
2022-08-08T21:24:03.125Z,1.60
2022-08-08T21:28:09.681Z,1.40
2022-08-08T21:31:57.784Z,1.63
2022-08-08T21:36:16.873Z,1.98
2022-08-08T21:39:57.070Z,1.70
2022-08-08T21:43:39.050Z,1.80
2022-08-08T21:48:12.845Z,1.60
2022-08-08T21:54:16.841Z,2.08
2022-08-08T21:56:25.974Z,2.08
2022-08-08T21:59:44.097Z,1.75
2022-08-08T22:03:30.630Z,1.95
2022-08-08T22:07:12.378Z,1.93
2022-08-08T22:10:55.137Z,1.80
2022-08-08T22:14:37.241Z,1.67
2022-08-08T22:18:19.247Z,1.65
2022-08-08T22:22:00.986Z,1.58
2022-08-08T22:26:28.212Z,1.70
2022-08-08T22:29:59.761Z,1.75
2022-08-08T22:34:13.391Z,1.67
2022-08-08T22:37:54.498Z,1.67
2022-08-08T22:41:36.961Z,1.55
2022-08-08T22:45:21.072Z,1.65
2022-08-08T22:49:03.634Z,1.90
2022-08-08T22:54:19.658Z,1.80
2022-08-08T22:56:50.169Z,1.65
2022-08-08T23:00:32.464Z,2.13
2022-08-08T23:04:14.517Z,2.03
2022-08-08T23:08:19.880Z,2.53
2022-08-08T23:12:28.968Z,2.40
2022-08-08T23:16:37.758Z,2.33
2022-08-08T23:20:05.998Z,2.13
2022-08-08T23:23:48.440Z,2.50
2022-08-08T23:27:46.122Z,1.90
2022-08-08T23:31:28.306Z,1.92
2022-08-08T23:35:12.712Z,1.77
2022-08-08T23:38:59.502Z,2.00
2022-08-08T23:42:45.202Z,2.63
2022-08-08T23:49:08.548Z,2.65
2022-08-08T23:50:31.221Z,2.40
2022-08-08T23:54:42.664Z,1.98
2022-08-08T23:58:31.966Z,1.98
